Time;durP1;ratioP1;P1;durP2;ratioP2;P2;SDS_P1;SDS_P2;PMS_P1;PMS_P2;Temp;Humidity;BMP_temperature;BMP_pressure;BME280_temperature;BME280_humidity;BME280_pressure;Samples;Min_cycle;Max_cycle;Signal;HPM_P1;HPM_P2
2022/06/10 00:01:09;;;;;;;0.10;0.10;;;11.20;99.90;;;;;;5059865;28;20040;-82
2022/06/10 00:03:36;;;;;;;0.10;0.10;;;11.20;99.90;;;;;;5076323;28;20498;-82
2022/06/10 00:06:05;;;;;;;0.10;0.10;;;11.10;99.90;;;;;;5059812;28;20039;-83
2022/06/10 00:08:35;;;;;;;0.10;0.10;;;11.10;99.90;;;;;;5092093;28;20490;-82
2022/06/10 00:11:04;;;;;;;0.10;0.10;;;11.10;99.90;;;;;;5092877;28;20041;-82
2022/06/10 00:13:34;;;;;;;0.00;0.00;;;11.10;99.90;;;;;;5075548;28;20032;-82
2022/06/10 00:16:01;;;;;;;0.20;0.13;;;11.10;99.90;;;;;;5075832;28;20032;-82
2022/06/10 00:18:30;;;;;;;0.22;0.20;;;11.10;99.90;;;;;;5075372;28;20063;-83
2022/06/10 00:20:58;;;;;;;0.05;0.05;;;11.10;99.90;;;;;;5075841;28;20055;-82
2022/06/10 00:23:25;;;;;;;0.00;0.00;;;11.10;99.90;;;;;;5075663;28;20033;-82
2022/06/10 00:25:52;;;;;;;0.30;0.17;;;11.00;99.90;;;;;;5075685;28;20094;-82
2022/06/10 00:28:19;;;;;;;0.10;0.10;;;11.10;99.90;;;;;;5075168;28;20040;-82
2022/06/10 00:30:46;;;;;;;0.20;0.10;;;11.00;99.90;;;;;;5075670;28;20036;-82
2022/06/10 00:33:13;;;;;;;0.10;0.10;;;11.00;99.90;;;;;;5075588;28;20398;-82
2022/06/10 00:35:40;;;;;;;0.10;0.10;;;11.00;99.90;;;;;;5075246;28;20044;-82
2022/06/10 00:38:07;;;;;;;0.10;0.10;;;11.00;99.90;;;;;;5075488;28;20075;-82
2022/06/10 00:40:38;;;;;;;0.15;0.15;;;10.90;99.90;;;;;;5075245;28;20076;-82
2022/06/10 00:43:05;;;;;;;0.20;0.20;;;10.90;99.90;;;;;;5075299;28;20484;-82
2022/06/10 00:46:01;;;;;;;0.17;0.17;;;10.90;99.90;;;;;;5075041;28;20089;-82
2022/06/10 00:48:37;;;;;;;0.20;0.20;;;10.90;99.90;;;;;;5075087;28;20036;-82
2022/06/10 00:51:17;;;;;;;0.32;0.22;;;10.90;99.90;;;;;;5074782;28;20472;-83
2022/06/10 00:53:44;;;;;;;0.10;0.10;;;10.80;99.90;;;;;;5074918;28;20135;-82
2022/06/10 00:56:16;;;;;;;0.10;0.10;;;10.90;99.90;;;;;;5075443;28;20047;-82
2022/06/10 00:58:56;;;;;;;0.10;0.10;;;10.90;99.90;;;;;;5075212;28;20512;-82
2022/06/10 01:01:24;;;;;;;0.10;0.10;;;10.90;99.90;;;;;;5075220;28;20548;-82
2022/06/10 01:03:52;;;;;;;0.85;0.20;;;10.80;99.90;;;;;;5091395;28;20036;-83
2022/06/10 01:06:21;;;;;;;0.15;0.15;;;10.80;99.90;;;;;;5075220;28;20040;-83
2022/06/10 01:08:49;;;;;;;0.13;0.10;;;10.80;99.90;;;;;;5074491;28;20037;-82
2022/06/10 01:11:22;;;;;;;0.10;0.10;;;10.80;99.90;;;;;;5058400;28;20044;-83
2022/06/10 01:14:12;;;;;;;0.10;0.10;;;10.80;99.90;;;;;;5061599;28;20482;-82
2022/06/10 01:17:03;;;;;;;0.00;0.00;;;10.80;99.90;;;;;;5090950;28;20127;-82
2022/06/10 01:19:48;;;;;;;0.10;0.10;;;10.80;99.90;;;;;;5093200;28;20044;-82
2022/06/10 01:22:54;;;;;;;0.10;0.10;;;10.70;99.90;;;;;;5091636;28;20048;-82
2022/06/10 01:25:52;;;;;;;0.10;0.10;;;10.80;99.90;;;;;;5091060;28;20083;-82
2022/06/10 01:28:34;;;;;;;0.10;0.10;;;10.80;99.90;;;;;;5090982;28;20105;-82
2022/06/10 01:31:19;;;;;;;0.10;0.10;;;10.70;99.90;;;;;;5076737;28;20033;-82
2022/06/10 01:34:13;;;;;;;0.17;0.10;;;10.70;99.90;;;;;;5071001;28;20045;-82
2022/06/10 01:36:49;;;;;;;0.13;0.13;;;10.70;99.90;;;;;;5054362;28;20040;-82
2022/06/10 01:39:22;;;;;;;0.10;0.10;;;10.70;99.90;;;;;;5054037;28;20072;-82
2022/06/10 01:42:04;;;;;;;0.10;0.10;;;10.70;99.90;;;;;;5070262;28;20036;-82
2022/06/10 01:44:41;;;;;;;0.20;0.10;;;10.70;99.90;;;;;;5055837;28;20124;-82
2022/06/10 01:47:44;;;;;;;0.52;0.30;;;10.70;99.90;;;;;;5074271;28;20082;-82
2022/06/10 01:50:25;;;;;;;0.15;0.13;;;10.70;99.90;;;;;;5034262;28;20050;-82
2022/06/10 01:52:57;;;;;;;0.50;0.20;;;10.60;99.90;;;;;;5070335;28;20509;-82
2022/06/10 01:55:24;;;;;;;0.15;0.10;;;10.60;99.90;;;;;;5087503;28;20141;-82
2022/06/10 01:57:59;;;;;;;0.20;0.20;;;10.60;99.90;;;;;;5086902;28;20084;-82
2022/06/10 02:00:29;;;;;;;0.10;0.10;;;10.60;99.90;;;;;;5070366;28;20040;-82
2022/06/10 02:03:21;;;;;;;0.10;0.10;;;10.60;99.90;;;;;;5070117;28;20044;-82
2022/06/10 02:05:57;;;;;;;0.00;0.00;;;10.60;99.90;;;;;;5059616;28;20490;-82
2022/06/10 02:08:35;;;;;;;0.10;0.10;;;10.60;99.90;;;;;;5070347;28;20052;-82
2022/06/10 02:11:12;;;;;;;0.10;0.10;;;10.60;99.90;;;;;;5070426;28;20037;-82
2022/06/10 02:13:49;;;;;;;0.10;0.10;;;10.60;99.90;;;;;;5086551;28;20501;-81
2022/06/10 02:16:20;;;;;;;0.10;0.10;;;10.60;99.90;;;;;;5087118;28;20037;-82
2022/06/10 02:18:58;;;;;;;0.15;0.13;;;10.50;99.90;;;;;;5069800;28;20037;-82
2022/06/10 02:21:40;;;;;;;0.20;0.10;;;10.50;99.90;;;;;;5086672;28;20478;-82
2022/06/10 02:24:16;;;;;;;0.10;0.10;;;10.50;99.90;;;;;;5070097;28;20037;-82
2022/06/10 02:26:43;;;;;;;;;;;10.50;99.90;;;;;;5086823;28;20063;-82
2022/06/10 02:29:16;;;;;;;0.15;0.10;;;10.60;99.90;;;;;;5070174;28;19921;-82
2022/06/10 02:32:04;;;;;;;0.17;0.17;;;10.60;99.90;;;;;;5086261;28;20037;-82
2022/06/10 02:34:31;;;;;;;0.30;0.20;;;10.60;99.90;;;;;;5069821;28;20045;-82
2022/06/10 02:37:40;;;;;;;0.10;0.10;;;10.60;99.90;;;;;;5069940;28;20490;-82
2022/06/10 02:40:35;;;;;;;0.22;0.20;;;10.60;99.90;;;;;;5086458;28;20056;-82
2022/06/10 02:43:29;;;;;;;0.17;0.10;;;10.60;99.90;;;;;;5069191;28;20076;-82
2022/06/10 02:46:27;;;;;;;0.20;0.20;;;10.60;99.90;;;;;;5085184;28;20501;-83
2022/06/10 02:49:02;;;;;;;0.05;0.05;;;10.60;99.90;;;;;;5069184;28;20099;-82
2022/06/10 02:51:30;;;;;;;;;;;10.70;99.90;;;;;;5086194;28;20053;-82
2022/06/10 02:53:59;;;;;;;0.03;0.03;;;10.60;99.90;;;;;;5085525;28;19921;-82
2022/06/10 02:56:27;;;;;;;0.10;0.10;;;10.60;99.90;;;;;;5069125;28;20036;-82
2022/06/10 03:02:03;;;;;;;0.22;0.22;;;10.60;99.90;;;;;;5101909;28;20049;-82
2022/06/10 03:05:00;;;;;;;0.00;0.00;;;10.60;99.90;;;;;;5086359;28;20045;-82
2022/06/10 03:08:05;;;;;;;0.10;0.10;;;10.70;99.90;;;;;;5085507;28;20783;-82
2022/06/10 03:10:50;;;;;;;0.15;0.10;;;10.70;99.90;;;;;;5069394;28;20045;-82
2022/06/10 03:13:36;;;;;;;0.00;0.00;;;10.70;99.90;;;;;;5069491;28;20044;-82
2022/06/10 03:16:52;;;;;;;0.10;0.10;;;10.70;99.90;;;;;;5069228;28;20037;-82
2022/06/10 03:19:51;;;;;;;0.10;0.10;;;10.70;99.90;;;;;;5069557;28;20045;-82
2022/06/10 03:23:07;;;;;;;0.10;0.10;;;10.70;99.90;;;;;;5069195;28;20041;-82
2022/06/10 03:25:49;;;;;;;0.10;0.10;;;10.60;99.90;;;;;;5049767;28;20132;-82
2022/06/10 03:28:35;;;;;;;0.13;0.13;;;10.60;99.90;;;;;;5049300;28;20506;-83
2022/06/10 03:31:13;;;;;;;0.10;0.10;;;10.60;99.90;;;;;;5054515;28;20580;-82
2022/06/10 03:33:43;;;;;;;0.20;0.20;;;10.60;99.90;;;;;;5085797;28;20041;-82
2022/06/10 03:36:26;;;;;;;0.40;0.20;;;10.60;99.90;;;;;;5069056;28;20398;-82
2022/06/10 03:38:54;;;;;;;0.10;0.10;;;10.60;99.90;;;;;;5085540;28;20494;-82
2022/06/10 03:41:28;;;;;;;0.20;0.20;;;10.60;99.90;;;;;;5085350;28;20132;-82
2022/06/10 03:43:57;;;;;;;0.20;0.17;;;10.60;99.90;;;;;;5068546;28;20110;-82
2022/06/10 03:46:26;;;;;;;0.10;0.10;;;10.60;99.90;;;;;;5085819;28;20041;-82
2022/06/10 03:48:54;;;;;;;0.10;0.10;;;10.60;99.90;;;;;;5068746;28;20433;-83
2022/06/10 03:51:22;;;;;;;0.10;0.10;;;10.60;99.90;;;;;;5085478;28;20049;-83
2022/06/10 03:53:49;;;;;;;0.13;0.13;;;10.60;99.90;;;;;;5085312;28;20103;-82
2022/06/10 03:56:25;;;;;;;0.10;0.10;;;10.60;99.90;;;;;;5069035;28;20055;-82
2022/06/10 03:58:52;;;;;;;0.10;0.10;;;10.60;99.90;;;;;;5068754;28;20077;-82
2022/06/10 04:01:19;;;;;;;0.10;0.10;;;10.60;99.90;;;;;;5068676;28;20446;-82
2022/06/10 04:03:46;;;;;;;0.10;0.10;;;10.60;99.90;;;;;;5085245;28;20049;-82
2022/06/10 04:06:16;;;;;;;0.10;0.10;;;10.60;99.90;;;;;;5068611;28;20124;-82
2022/06/10 04:08:44;;;;;;;0.10;0.10;;;10.60;99.90;;;;;;5085220;28;20482;-82
2022/06/10 04:11:10;;;;;;;0.10;0.10;;;10.60;99.90;;;;;;5068383;28;20359;-82
2022/06/10 04:13:37;;;;;;;0.10;0.10;;;10.70;99.90;;;;;;5053502;28;20090;-82
2022/06/10 04:16:04;;;;;;;0.10;0.10;;;10.60;99.90;;;;;;5072313;28;20040;-82
2022/06/10 04:18:31;;;;;;;0.10;0.10;;;10.80;99.90;;;;;;5055839;28;20040;-82
2022/06/10 04:20:58;;;;;;;0.10;0.10;;;10.70;99.90;;;;;;5088667;28;20037;-82
2022/06/10 04:23:24;;;;;;;0.10;0.10;;;10.70;99.90;;;;;;5072504;28;20083;-82
2022/06/10 04:25:51;;;;;;;0.10;0.10;;;10.80;99.90;;;;;;5072200;28;20044;-82
2022/06/10 04:28:18;;;;;;;0.10;0.10;;;10.80;99.90;;;;;;5072284;28;20040;-82
2022/06/10 04:30:47;;;;;;;0.20;0.20;;;10.90;99.90;;;;;;5072216;28;20489;-82
2022/06/10 04:33:14;;;;;;;0.17;0.17;;;10.90;99.90;;;;;;5088267;28;20045;-82
2022/06/10 04:35:43;;;;;;;0.13;0.13;;;11.00;99.90;;;;;;5072208;28;20045;-82
2022/06/10 04:38:13;;;;;;;0.10;0.10;;;11.00;99.90;;;;;;5071505;28;20037;-82
2022/06/10 04:40:41;;;;;;;0.20;0.20;;;11.00;99.90;;;;;;5072121;28;20044;-82
2022/06/10 04:43:08;;;;;;;0.10;0.10;;;11.10;99.90;;;;;;5088193;28;20520;-82
2022/06/10 04:45:44;;;;;;;0.13;0.13;;;11.20;99.90;;;;;;5071864;28;20063;-82
2022/06/10 04:48:11;;;;;;;;;;;11.20;99.90;;;;;;5072391;28;20044;-82
2022/06/10 04:50:40;;;;;;;0.22;0.10;;;11.30;99.90;;;;;;5088263;28;19921;-82
2022/06/10 04:53:07;;;;;;;0.32;0.22;;;11.30;99.90;;;;;;5071301;28;20064;-82
2022/06/10 04:55:34;;;;;;;0.25;0.10;;;11.40;99.90;;;;;;5071813;28;20044;-82
2022/06/10 04:58:00;;;;;;;0.38;0.20;;;11.40;99.90;;;;;;5055150;28;20609;-83
2022/06/10 05:00:39;;;;;;;0.10;0.10;;;11.50;99.90;;;;;;5055133;28;20104;-82
2022/06/10 05:03:07;;;;;;;0.65;0.20;;;11.50;99.90;;;;;;5071376;28;20401;-82
2022/06/10 05:05:34;;;;;;;0.10;0.10;;;11.70;99.90;;;;;;5080047;28;20041;-82
2022/06/10 05:08:01;;;;;;;0.25;0.13;;;11.70;99.90;;;;;;5055226;28;20123;-82
2022/06/10 05:10:28;;;;;;;0.22;0.20;;;11.70;99.90;;;;;;5058486;28;20476;-82
2022/06/10 05:12:55;;;;;;;0.28;0.25;;;11.80;99.90;;;;;;5048107;28;20096;-82
2022/06/10 05:15:22;;;;;;;0.20;0.10;;;11.90;99.90;;;;;;5067819;28;20042;-82
2022/06/10 05:17:51;;;;;;;0.20;0.20;;;12.00;99.90;;;;;;5051323;28;20029;-82
2022/06/10 05:20:22;;;;;;;0.32;0.20;;;12.00;99.90;;;;;;5067811;28;20041;-82
2022/06/10 05:22:49;;;;;;;0.10;0.10;;;12.10;99.90;;;;;;5074582;28;20448;-82
2022/06/10 05:25:16;;;;;;;0.50;0.30;;;12.20;99.90;;;;;;5061851;28;20135;-82
2022/06/10 05:27:43;;;;;;;0.10;0.10;;;12.20;99.90;;;;;;5035041;28;20580;-82
2022/06/10 05:30:16;;;;;;;0.30;0.20;;;12.30;99.90;;;;;;5064185;28;20080;-82
2022/06/10 05:32:43;;;;;;;0.10;0.10;;;12.40;99.90;;;;;;5051126;28;20120;-82
2022/06/10 05:35:09;;;;;;;0.10;0.10;;;12.40;99.90;;;;;;5034351;28;20184;-82
2022/06/10 05:37:36;;;;;;;0.20;0.20;;;12.50;99.90;;;;;;5050525;28;20041;-82
2022/06/10 05:40:03;;;;;;;0.20;0.20;;;12.60;99.90;;;;;;5087526;28;20032;-83
2022/06/10 05:42:31;;;;;;;0.65;0.30;;;12.70;99.90;;;;;;5069063;28;20049;-82
2022/06/10 05:44:57;;;;;;;0.20;0.20;;;12.90;99.90;;;;;;5060069;28;20504;-82
2022/06/10 05:47:30;;;;;;;0.28;0.15;;;13.10;99.90;;;;;;5048501;28;20075;-82
2022/06/10 05:49:59;;;;;;;0.28;0.20;;;13.30;99.90;;;;;;5072817;28;20497;-82
2022/06/10 05:52:28;;;;;;;0.38;0.15;;;13.50;99.90;;;;;;5088115;28;20102;-82
2022/06/10 05:54:58;;;;;;;0.50;0.22;;;13.80;99.90;;;;;;5054225;28;20141;-82
2022/06/10 05:57:25;;;;;;;0.22;0.20;;;14.00;99.90;;;;;;5049777;28;20038;-82
2022/06/10 05:59:52;;;;;;;0.30;0.25;;;14.10;99.90;;;;;;5034702;28;20414;-82
2022/06/10 06:02:21;;;;;;;0.10;0.10;;;14.30;99.90;;;;;;5034072;28;20038;-82
2022/06/10 06:04:48;;;;;;;0.75;0.40;;;14.40;99.90;;;;;;5061971;28;20044;-82
2022/06/10 06:07:22;;;;;;;0.17;0.10;;;14.50;99.90;;;;;;5050336;28;20049;-82
2022/06/10 06:09:49;;;;;;;0.28;0.28;;;14.70;99.90;;;;;;5067088;28;20034;-81
2022/06/10 06:12:17;;;;;;;0.43;0.20;;;14.80;99.90;;;;;;5067173;28;20033;-82
2022/06/10 06:14:44;;;;;;;0.70;0.30;;;14.90;99.90;;;;;;5077394;28;20520;-82
2022/06/10 06:17:13;;;;;;;1.08;0.20;;;15.00;99.90;;;;;;5040529;28;20033;-81
2022/06/10 06:19:40;;;;;;;0.20;0.10;;;15.20;99.90;;;;;;5061906;28;20096;-82
2022/06/10 06:22:07;;;;;;;0.35;0.22;;;15.20;99.90;;;;;;5034255;28;20124;-82
2022/06/10 06:24:35;;;;;;;0.10;0.10;;;15.30;99.90;;;;;;5066382;28;20045;-82
2022/06/10 06:27:02;;;;;;;0.30;0.20;;;15.30;99.90;;;;;;5080576;28;20037;-82
2022/06/10 06:29:29;;;;;;;0.45;0.22;;;15.40;99.90;;;;;;5062632;28;20045;-82
2022/06/10 06:31:56;;;;;;;0.35;0.30;;;15.40;99.90;;;;;;5053425;28;20037;-82
2022/06/10 06:34:24;;;;;;;0.20;0.15;;;15.50;99.90;;;;;;5038573;28;20044;-81
2022/06/10 06:36:54;;;;;;;0.20;0.10;;;15.50;99.90;;;;;;5033925;28;20048;-82
2022/06/10 06:39:23;;;;;;;0.10;0.10;;;15.60;99.90;;;;;;5049478;28;20810;-82
2022/06/10 06:41:52;;;;;;;0.10;0.10;;;15.60;99.90;;;;;;5084638;28;20045;-82
2022/06/10 06:44:20;;;;;;;0.20;0.20;;;15.60;99.90;;;;;;5065656;28;20417;-82
2022/06/10 06:46:47;;;;;;;0.40;0.22;;;15.60;99.90;;;;;;5086070;28;20501;-82
2022/06/10 06:49:22;;;;;;;0.17;0.17;;;15.60;99.90;;;;;;5063939;28;20053;-82
2022/06/10 06:51:50;;;;;;;0.30;0.30;;;15.60;99.90;;;;;;5057084;28;20124;-83
2022/06/10 06:54:17;;;;;;;0.60;0.13;;;15.60;99.90;;;;;;5070969;28;20080;-80
2022/06/10 06:56:44;;;;;;;0.28;0.10;;;15.70;99.90;;;;;;5046480;28;20041;-82
2022/06/10 06:59:11;;;;;;;0.15;0.10;;;15.80;99.90;;;;;;5053267;28;20041;-82
2022/06/10 07:01:38;;;;;;;1.60;0.30;;;15.80;99.90;;;;;;5056892;28;20087;-82
2022/06/10 07:04:05;;;;;;;0.10;0.10;;;15.90;99.90;;;;;;5066172;28;20053;-82
2022/06/10 07:06:35;;;;;;;0.20;0.20;;;15.90;99.90;;;;;;5049292;28;20180;-82
2022/06/10 07:09:05;;;;;;;0.40;0.30;;;15.90;99.90;;;;;;5049164;28;20081;-82
2022/06/10 07:11:32;;;;;;;0.20;0.20;;;15.90;99.90;;;;;;5034451;28;20402;-81
2022/06/10 07:13:59;;;;;;;0.20;0.17;;;16.00;99.90;;;;;;5049701;28;20095;-81
2022/06/10 07:16:26;;;;;;;0.70;0.40;;;16.10;99.90;;;;;;5047920;28;20441;-81
2022/06/10 07:18:53;;;;;;;0.30;0.30;;;16.10;99.90;;;;;;5067696;28;20608;-81
2022/06/10 07:21:20;;;;;;;0.20;0.20;;;16.00;99.90;;;;;;5068576;28;20040;-80
2022/06/10 07:23:47;;;;;;;0.10;0.10;;;16.00;99.90;;;;;;5068876;28;20139;-81
2022/06/10 07:26:13;;;;;;;0.28;0.28;;;16.10;99.90;;;;;;5052073;28;20106;-82
2022/06/10 07:28:40;;;;;;;3.15;0.40;;;16.10;99.90;;;;;;5052222;28;20056;-81
2022/06/10 07:31:07;;;;;;;0.32;0.32;;;16.10;99.90;;;;;;5069215;28;20394;-82
2022/06/10 07:33:35;;;;;;;1.00;0.60;;;16.20;99.90;;;;;;5068284;28;20547;-82
2022/06/10 07:36:05;;;;;;;0.20;0.20;;;16.20;99.90;;;;;;5063055;28;20571;-80
2022/06/10 07:38:32;;;;;;;0.28;0.25;;;16.30;99.90;;;;;;5067948;28;20060;-82
2022/06/10 07:43:45;;;;;;;0.17;0.17;;;16.30;99.90;;;;;;5070952;28;20143;-82
2022/06/10 07:46:18;;;;;;;0.30;0.30;;;16.30;99.90;;;;;;5084821;28;20835;-81
2022/06/10 07:48:45;;;;;;;0.20;0.20;;;16.30;99.90;;;;;;5088934;28;20049;-81
2022/06/10 07:51:12;;;;;;;0.20;0.20;;;16.30;99.90;;;;;;5083122;28;20056;-81
2022/06/10 07:53:41;;;;;;;0.25;0.20;;;16.30;99.90;;;;;;5062644;28;20160;-81
2022/06/10 07:56:10;;;;;;;0.22;0.20;;;16.30;99.90;;;;;;5049621;28;20049;-82
2022/06/10 07:58:37;;;;;;;0.13;0.10;;;16.30;99.90;;;;;;5075176;28;20081;-80
2022/06/10 08:01:03;;;;;;;0.25;0.10;;;16.30;99.90;;;;;;5067199;28;20083;-81
2022/06/10 08:03:30;;;;;;;0.10;0.10;;;16.30;99.90;;;;;;5071143;28;20041;-81
2022/06/10 08:05:59;;;;;;;0.40;0.30;;;16.30;99.90;;;;;;5088717;28;20522;-81
2022/06/10 08:08:26;;;;;;;0.30;0.20;;;16.50;99.90;;;;;;5071930;28;20048;-81
2022/06/10 08:10:52;;;;;;;1.42;0.50;;;16.60;99.90;;;;;;5071850;28;20488;-81
2022/06/10 08:13:19;;;;;;;0.15;0.10;;;16.70;99.90;;;;;;5071979;28;20069;-81
2022/06/10 08:15:46;;;;;;;0.80;0.35;;;16.80;99.90;;;;;;5052195;28;20088;-81
2022/06/10 08:18:16;;;;;;;0.10;0.10;;;16.80;99.90;;;;;;5063047;28;20512;-81
2022/06/10 08:23:30;;;;;;;0.95;0.38;;;16.70;99.90;;;;;;5081955;28;20059;-81
2022/06/10 08:25:59;;;;;;;0.20;0.20;;;16.70;99.90;;;;;;5071924;28;20040;-81
2022/06/10 08:28:27;;;;;;;0.82;0.47;;;16.70;99.90;;;;;;5071506;28;20048;-81
2022/06/10 08:30:54;;;;;;;0.22;0.22;;;16.70;99.90;;;;;;5088403;28;20048;-81
2022/06/10 08:33:21;;;;;;;1.33;0.57;;;16.80;99.90;;;;;;5071579;28;20075;-82
2022/06/10 08:35:48;;;;;;;0.35;0.32;;;16.90;99.90;;;;;;5093288;28;20034;-82
2022/06/10 08:38:16;;;;;;;0.30;0.30;;;17.00;99.90;;;;;;5035577;28;20569;-82
2022/06/10 08:41:24;;;;;;;0.55;0.30;;;17.10;99.90;;;;;;5067752;28;20041;-82
2022/06/10 08:44:07;;;;;;;0.35;0.28;;;17.20;99.90;;;;;;5067867;28;20037;-82
2022/06/10 08:47:05;;;;;;;0.25;0.20;;;17.30;99.90;;;;;;5051283;28;20041;-82
2022/06/10 08:49:54;;;;;;;0.22;0.20;;;17.40;99.90;;;;;;5067199;28;20050;-82
2022/06/10 08:52:55;;;;;;;0.45;0.32;;;17.30;99.90;;;;;;5068123;28;20049;-82
2022/06/10 08:55:41;;;;;;;0.30;0.30;;;17.20;99.90;;;;;;5051330;28;20037;-82
2022/06/10 08:58:31;;;;;;;0.55;0.50;;;16.90;99.90;;;;;;5067809;28;20075;-81
2022/06/10 09:01:04;;;;;;;0.52;0.43;;;16.80;99.90;;;;;;5085474;28;20044;-83
2022/06/10 09:03:40;;;;;;;0.38;0.32;;;16.60;99.90;;;;;;5071375;28;20118;-82
2022/06/10 09:06:09;;;;;;;;;;;16.60;99.90;;;;;;5071917;28;20045;-82
2022/06/10 09:08:46;;;;;;;0.45;0.38;;;16.70;99.90;;;;;;5087330;28;19923;-81
2022/06/10 09:11:45;;;;;;;0.30;0.30;;;16.70;99.90;;;;;;5071028;28;20129;-80
2022/06/10 09:14:17;;;;;;;0.70;0.43;;;16.70;99.90;;;;;;5087611;28;20533;-82
2022/06/10 09:17:01;;;;;;;0.55;0.35;;;16.60;99.90;;;;;;5087353;28;20052;-81
2022/06/10 09:19:43;;;;;;;0.38;0.28;;;16.60;99.90;;;;;;5070860;28;20045;-83
2022/06/10 09:22:32;;;;;;;0.38;0.30;;;16.60;99.90;;;;;;5067442;28;20042;-82
2022/06/10 09:25:14;;;;;;;0.25;0.25;;;16.60;99.90;;;;;;5051216;28;20146;-82
2022/06/10 09:27:44;;;;;;;0.25;0.25;;;16.60;99.90;;;;;;5067458;28;20060;-82
2022/06/10 09:30:14;;;;;;;0.63;0.40;;;16.70;99.90;;;;;;5050860;28;20041;-82
2022/06/10 09:33:10;;;;;;;0.32;0.32;;;16.80;99.90;;;;;;5067178;28;20137;-82
2022/06/10 09:36:03;;;;;;;0.30;0.30;;;16.90;99.90;;;;;;5067287;28;20041;-82
2022/06/10 09:38:56;;;;;;;0.30;0.30;;;17.00;99.90;;;;;;5051017;28;20099;-82
2022/06/10 09:41:43;;;;;;;0.30;0.30;;;17.10;99.90;;;;;;5064147;28;20049;-82
2022/06/10 09:44:13;;;;;;;0.52;0.22;;;17.10;99.90;;;;;;5066894;28;20037;-82
2022/06/10 09:46:54;;;;;;;0.60;0.50;;;17.20;99.90;;;;;;5066721;28;20487;-82
2022/06/10 09:49:48;;;;;;;0.13;0.13;;;17.20;99.90;;;;;;5066807;28;20091;-82
2022/06/10 09:52:25;;;;;;;0.20;0.20;;;17.30;99.90;;;;;;5067330;28;20056;-82
2022/06/10 09:55:10;;;;;;;0.50;0.35;;;17.40;99.90;;;;;;5050507;28;20049;-82
2022/06/10 09:58:21;;;;;;;0.35;0.30;;;17.40;99.90;;;;;;5052776;28;20467;-82
2022/06/10 10:00:58;;;;;;;0.73;0.40;;;17.50;99.90;;;;;;4974580;28;20050;-83
2022/06/10 10:03:44;;;;;;;0.30;0.20;;;17.50;99.90;;;;;;5057508;28;20476;-82
2022/06/10 10:06:42;;;;;;;0.40;0.40;;;17.50;99.90;;;;;;5070349;28;20551;-82
2022/06/10 10:09:36;;;;;;;0.30;0.30;;;17.60;99.90;;;;;;5070568;28;20128;-82
2022/06/10 10:12:09;;;;;;;0.47;0.38;;;17.50;99.90;;;;;;5069861;28;20084;-82
2022/06/10 10:14:47;;;;;;;0.38;0.38;;;17.40;99.90;;;;;;5070047;28;20087;-83
2022/06/10 10:17:22;;;;;;;0.35;0.35;;;17.40;99.90;;;;;;5074032;28;20557;-81
2022/06/10 10:20:08;;;;;;;0.30;0.30;;;17.30;99.90;;;;;;5075874;28;20033;-82
2022/06/10 10:23:06;;;;;;;0.20;0.20;;;17.30;99.90;;;;;;5086518;28;20084;-83
2022/06/10 10:25:33;;;;;;;0.57;0.40;;;17.30;99.90;;;;;;5069818;28;20040;-83
2022/06/10 10:28:08;;;;;;;0.38;0.30;;;17.30;99.90;;;;;;5069326;28;20047;-82
2022/06/10 10:30:47;;;;;;;0.65;0.43;;;17.40;99.90;;;;;;5069476;28;20050;-83
2022/06/10 10:33:15;;;;;;;0.25;0.25;;;17.30;99.90;;;;;;5069583;28;20047;-83
2022/06/10 10:35:53;;;;;;;0.30;0.30;;;17.40;99.90;;;;;;5069463;28;20402;-83
2022/06/10 10:38:40;;;;;;;0.55;0.35;;;17.50;99.90;;;;;;5069533;28;20120;-83
2022/06/10 10:41:19;;;;;;;0.30;0.30;;;17.60;99.90;;;;;;5069693;28;20045;-83
2022/06/10 10:43:48;;;;;;;0.68;0.43;;;17.70;99.90;;;;;;5085740;28;20126;-82
2022/06/10 10:46:29;;;;;;;0.65;0.43;;;17.90;99.90;;;;;;5070039;28;20055;-82
2022/06/10 10:48:57;;;;;;;0.57;0.43;;;18.10;99.90;;;;;;5069014;28;20053;-83
2022/06/10 10:51:31;;;;;;;0.20;0.20;;;18.40;99.90;;;;;;5069336;28;20071;-83
2022/06/10 10:54:16;;;;;;;0.77;0.60;;;18.50;99.90;;;;;;5069295;28;20387;-82
2022/06/10 10:56:47;;;;;;;0.30;0.28;;;18.70;99.90;;;;;;5071917;28;20033;-83
2022/06/10 10:59:36;;;;;;;1.35;0.60;;;18.90;99.90;;;;;;5048299;28;20417;-82
2022/06/10 11:02:25;;;;;;;0.50;0.40;;;19.00;99.90;;;;;;5065496;28;20045;-83
2022/06/10 11:05:15;;;;;;;0.40;0.40;;;19.10;99.90;;;;;;5058972;28;20054;-82
2022/06/10 11:07:43;;;;;;;0.85;0.55;;;19.10;99.90;;;;;;5051753;28;20072;-83
2022/06/10 11:10:21;;;;;;;0.65;0.45;;;19.00;99.90;;;;;;5079159;28;20041;-82
2022/06/10 11:12:48;;;;;;;0.43;0.40;;;18.90;99.90;;;;;;5082102;28;20033;-83
2022/06/10 11:15:27;;;;;;;0.88;0.50;;;18.80;99.90;;;;;;5065389;28;20052;-83
2022/06/10 11:17:55;;;;;;;1.33;0.45;;;18.80;99.90;;;;;;5075869;28;20098;-83
2022/06/10 11:20:29;;;;;;;0.45;0.38;;;18.70;99.90;;;;;;5098494;28;20559;-84
2022/06/10 11:23:22;;;;;;;1.35;0.65;;;18.60;99.90;;;;;;5056697;28;20033;-83
2022/06/10 11:26:26;;;;;;;0.40;0.35;;;18.60;99.90;;;;;;5076617;28;20124;-83
2022/06/10 11:29:02;;;;;;;0.35;0.30;;;18.70;99.90;;;;;;5004742;28;20048;-83
2022/06/10 11:31:45;;;;;;;0.15;0.15;;;18.80;99.90;;;;;;5073017;28;20038;-83
2022/06/10 11:34:53;;;;;;;0.20;0.20;;;19.00;99.90;;;;;;5084584;28;20919;-83
2022/06/10 11:37:28;;;;;;;0.25;0.20;;;19.30;99.90;;;;;;5014698;28;20939;-83
2022/06/10 11:40:11;;;;;;;0.20;0.20;;;19.60;99.90;;;;;;5060871;28;20056;-83
2022/06/10 11:43:15;;;;;;;0.55;0.35;;;19.60;99.90;;;;;;5059868;28;20038;-83
2022/06/10 11:45:51;;;;;;;1.13;0.52;;;19.70;99.90;;;;;;5054667;28;20091;-82
2022/06/10 11:48:31;;;;;;;0.65;0.30;;;20.00;99.90;;;;;;5071589;28;20052;-83
2022/06/10 11:51:04;;;;;;;0.20;0.20;;;20.20;99.90;;;;;;5065308;28;20045;-83
2022/06/10 11:53:38;;;;;;;0.20;0.20;;;20.20;99.90;;;;;;5066263;28;20045;-83
2022/06/10 12:01:52;;;;;;;0.30;0.30;;;20.30;99.90;;;;;;5082290;28;20037;-83
2022/06/10 12:04:29;;;;;;;0.50;0.40;;;20.40;99.90;;;;;;5089143;28;20036;-84
2022/06/10 12:07:04;;;;;;;0.30;0.30;;;20.60;99.90;;;;;;5071928;28;20037;-83
2022/06/10 12:09:40;;;;;;;0.40;0.40;;;20.80;99.90;;;;;;5071793;28;20044;-82
2022/06/10 12:12:20;;;;;;;0.40;0.40;;;20.80;99.90;;;;;;5068042;28;20081;-85
2022/06/10 12:14:54;;;;;;;0.40;0.40;;;20.70;99.90;;;;;;5067635;28;20397;-85
2022/06/10 12:17:41;;;;;;;0.20;0.20;;;20.70;99.90;;;;;;5072318;28;20072;-84
2022/06/10 12:20:27;;;;;;;0.50;0.38;;;20.80;99.90;;;;;;5071471;28;20033;-86
2022/06/10 12:22:53;;;;;;;0.70;0.40;;;20.90;99.90;;;;;;5071714;28;20076;-86
2022/06/10 12:25:30;;;;;;;0.17;0.17;;;21.00;99.90;;;;;;5071866;28;20145;-86
2022/06/10 12:28:24;;;;;;;0.50;0.47;;;21.10;99.90;;;;;;5071569;28;20044;-86
2022/06/10 12:31:00;;;;;;;0.30;0.30;;;21.30;99.90;;;;;;5072236;28;20187;-86
2022/06/10 12:33:35;;;;;;;0.30;0.28;;;21.30;99.90;;;;;;5072081;28;20037;-86
2022/06/10 12:36:05;;;;;;;0.22;0.20;;;21.30;99.90;;;;;;5070852;28;20044;-86
2022/06/10 12:38:40;;;;;;;0.43;0.43;;;21.00;99.90;;;;;;5072503;28;20041;-86
2022/06/10 12:41:10;;;;;;;0.13;0.13;;;20.80;99.90;;;;;;5071904;28;20386;-86
2022/06/10 12:43:43;;;;;;;0.32;0.32;;;20.80;99.90;;;;;;5088340;28;20041;-86
2022/06/10 12:46:47;;;;;;;0.32;0.20;;;20.80;99.90;;;;;;5071131;28;20171;-85
2022/06/10 12:49:17;;;;;;;0.60;0.38;;;20.80;99.90;;;;;;5071338;28;20486;-85
2022/06/10 12:51:58;;;;;;;0.40;0.40;;;20.90;99.90;;;;;;5071687;28;20096;-86
2022/06/10 12:54:28;;;;;;;0.43;0.40;;;21.10;99.90;;;;;;5071620;28;20090;-86
2022/06/10 12:57:23;;;;;;;0.73;0.40;;;21.20;99.90;;;;;;5087804;28;20041;-86
2022/06/10 12:59:50;;;;;;;0.40;0.30;;;21.30;99.90;;;;;;5071184;28;20037;-86
2022/06/10 13:02:34;;;;;;;0.50;0.38;;;21.40;99.90;;;;;;5038223;28;20048;-86
2022/06/10 13:05:16;;;;;;;0.35;0.35;;;21.50;99.90;;;;;;5068276;28;20037;-86
2022/06/10 13:07:43;;;;;;;1.83;0.70;;;21.40;99.90;;;;;;5093613;28;20052;-88
2022/06/10 13:10:28;;;;;;;0.20;0.20;;;21.60;99.90;;;;;;5065917;28;20029;-86
2022/06/10 13:13:23;;;;;;;1.50;0.52;;;21.90;99.90;;;;;;5070390;28;20124;-87
2022/06/10 13:15:53;;;;;;;0.38;0.38;;;22.20;99.90;;;;;;5060525;28;20084;-86
2022/06/10 13:18:34;;;;;;;3.20;0.85;;;22.20;99.90;;;;;;5063608;28;20037;-88
2022/06/10 13:21:15;;;;;;;0.52;0.45;;;22.10;99.90;;;;;;5081617;28;20063;-87
2022/06/10 13:24:10;;;;;;;0.20;0.20;;;22.00;99.90;;;;;;5072057;28;20047;-87
2022/06/10 13:26:37;;;;;;;0.40;0.40;;;22.00;99.90;;;;;;5061869;28;20072;-88
2022/06/10 13:29:10;;;;;;;0.30;0.30;;;21.90;99.90;;;;;;5071445;28;20287;-87
2022/06/10 13:31:46;;;;;;;0.55;0.55;;;21.90;99.90;;;;;;5071368;28;20068;-87
2022/06/10 13:34:23;;;;;;;0.20;0.20;;;21.80;99.90;;;;;;5088052;28;20037;-88
2022/06/10 13:36:57;;;;;;;0.30;0.30;;;21.70;99.90;;;;;;5080670;28;20033;-86
2022/06/10 13:39:39;;;;;;;0.30;0.30;;;21.60;99.90;;;;;;5071270;28;20128;-86
2022/06/10 13:42:06;;;;;;;0.20;0.20;;;21.40;99.90;;;;;;5071514;28;20041;-87
2022/06/10 13:44:45;;;;;;;1.40;0.35;;;21.20;99.90;;;;;;5037808;28;20045;-88